Time;durP1;ratioP1;P1;durP2;ratioP2;P2;SDS_P1;SDS_P2;PMS_P1;PMS_P2;Temp;Humidity;BMP_temperature;BMP_pressure;BME280_temperature;BME280_humidity;BME280_pressure;Samples;Min_cycle;Max_cycle;Signal;HPM_P1;HPM_P2
2023/01/31 00:01:53;;;;;;;13.00;8.40;;;;;;;-0.57;66.19;100269.64;109118;1240;60115;-91
2023/01/31 00:04:21;;;;;;;14.70;9.30;;;;;;;-0.58;66.26;100280.98;109199;1235;73885;-92
2023/01/31 00:06:50;;;;;;;11.10;7.80;;;;;;;-0.59;66.38;100273.98;109036;1241;64565;-92
2023/01/31 00:09:18;;;;;;;12.90;8.70;;;;;;;-0.61;66.49;100270.08;109378;1235;72707;-91
2023/01/31 00:11:45;;;;;;;11.00;7.30;;;;;;;-0.64;66.64;100263.60;109336;1235;60644;-92
2023/01/31 00:14:17;;;;;;;14.50;8.50;;;;;;;-0.66;66.65;100263.29;109654;1235;60351;-92
2023/01/31 00:16:51;;;;;;;12.30;7.90;;;;;;;-0.65;66.91;100258.80;108989;1234;73706;-92
2023/01/31 00:19:19;;;;;;;11.90;7.40;;;;;;;-0.62;66.92;100257.20;108872;1239;64743;-93
2023/01/31 00:21:46;;;;;;;9.50;6.00;;;;;;;-0.62;66.99;100256.52;109100;1237;73418;-93
2023/01/31 00:24:13;;;;;;;12.90;8.30;;;;;;;-0.60;66.88;100255.63;109226;1232;60460;-93
2023/01/31 00:26:40;;;;;;;11.20;7.30;;;;;;;-0.59;66.81;100248.23;109365;1235;61197;-92
2023/01/31 00:29:10;;;;;;;11.20;8.20;;;;;;;-0.54;67.19;100250.02;109163;1235;74698;-91
2023/01/31 00:31:37;;;;;;;12.50;8.30;;;;;;;-0.49;67.04;100249.56;111448;1234;65456;-91
2023/01/31 00:34:06;;;;;;;14.30;8.70;;;;;;;-0.43;66.85;100256.66;111468;1235;72471;-91
2023/01/31 00:36:33;;;;;;;11.60;8.50;;;;;;;-0.42;66.76;100259.54;112518;1234;59449;-91
2023/01/31 00:39:02;;;;;;;12.30;7.60;;;;;;;-0.39;66.93;100259.32;112310;1232;60076;-89
2023/01/31 00:41:29;;;;;;;12.80;9.00;;;;;;;-0.37;66.76;100261.34;111766;1235;74054;-88
2023/01/31 00:43:59;;;;;;;15.00;9.20;;;;;;;-0.38;66.66;100259.80;111973;1235;63583;-90
2023/01/31 00:46:26;;;;;;;11.40;8.90;;;;;;;-0.39;66.68;100260.70;112073;1233;72557;-91
2023/01/31 00:48:55;;;;;;;12.20;8.90;;;;;;;-0.40;66.67;100255.56;110790;1235;60426;-92
2023/01/31 00:51:23;;;;;;;10.80;8.00;;;;;;;-0.43;65.99;100248.05;108894;1237;61187;-92
2023/01/31 00:53:53;;;;;;;11.90;8.30;;;;;;;-0.48;65.47;100248.34;109192;1237;74609;-93
2023/01/31 00:56:22;;;;;;;11.90;8.00;;;;;;;-0.53;65.34;100248.95;109036;1237;64675;-90
2023/01/31 00:58:50;;;;;;;14.10;9.20;;;;;;;-0.57;65.05;100244.41;108962;1238;73351;-89
2023/01/31 01:01:20;;;;;;;14.10;9.80;;;;;;;-0.61;64.91;100241.41;109722;1239;60287;-89
2023/01/31 01:03:47;;;;;;;20.40;10.50;;;;;;;-0.64;65.11;100241.11;109041;1238;61016;-91
2023/01/31 04:35:13;;;;;;;18.20;12.30;;;;;;;-1.14;73.58;100223.02;104824;1285;613140;-85
2023/01/31 04:37:45;;;;;;;24.50;13.90;;;;;;;-0.96;73.16;100218.06;106153;1267;103101;-87
2023/01/31 04:40:13;;;;;;;29.90;18.10;;;;;;;-0.92;72.78;100218.48;107337;1267;59388;-86
2023/01/31 04:42:42;;;;;;;26.70;16.80;;;;;;;-0.88;72.68;100226.82;106009;1275;72543;-88
2023/01/31 04:45:15;;;;;;;23.90;14.00;;;;;;;-0.86;72.26;100226.27;106706;1261;64966;-87
2023/01/31 04:47:50;;;;;;;21.40;13.80;;;;;;;-0.85;71.99;100228.13;106472;1261;71263;-87
2023/01/31 04:50:19;;;;;;;20.60;13.80;;;;;;;-0.81;71.83;100231.50;108473;1260;61378;-87
2023/01/31 04:52:50;;;;;;;24.40;15.30;;;;;;;-0.77;71.88;100229.88;106561;1266;61060;-86
2023/01/31 04:55:18;;;;;;;22.40;13.30;;;;;;;-0.74;71.75;100228.25;106200;1264;73200;-87
2023/01/31 04:57:51;;;;;;;23.70;13.00;;;;;;;-0.70;71.59;100234.52;106256;1260;63836;-87
2023/01/31 05:00:21;;;;;;;23.20;13.20;;;;;;;-0.67;71.62;100231.71;106122;1260;72558;-88
2023/01/31 05:02:49;;;;;;;21.30;14.20;;;;;;;-0.60;71.44;100235.03;106323;1263;60438;-89
2023/01/31 05:05:18;;;;;;;20.70;11.80;;;;;;;-0.58;71.16;100233.25;106876;1259;61308;-86
2023/01/31 05:07:46;;;;;;;19.00;11.90;;;;;;;-0.57;70.90;100234.27;106368;1260;73746;-87
2023/01/31 05:10:13;;;;;;;18.70;12.30;;;;;;;-0.57;70.44;100235.80;106456;1260;64740;-89
2023/01/31 05:12:42;;;;;;;28.80;16.20;;;;;;;-0.60;70.45;100236.23;106196;1264;72684;-89
2023/01/31 05:15:19;;;;;;;30.00;17.60;;;;;;;-0.66;70.28;100235.15;106800;1260;60615;-88
2023/01/31 05:18:01;;;;;;;24.90;15.80;;;;;;;-0.70;70.22;100235.40;107414;1260;61577;-88
2023/01/31 05:20:54;;;;;;;23.50;13.90;;;;;;;-0.75;70.33;100240.65;107828;1259;74509;-88
2023/01/31 05:23:24;;;;;;;24.00;13.90;;;;;;;-0.80;70.25;100241.61;106826;1260;64101;-86
2023/01/31 05:25:53;;;;;;;26.00;14.60;;;;;;;-0.84;70.28;100239.10;106888;1259;73728;-88
2023/01/31 05:28:20;;;;;;;19.90;12.40;;;;;;;-0.86;70.20;100247.20;106697;1260;61169;-86
2023/01/31 05:31:01;;;;;;;18.40;11.40;;;;;;;-0.86;70.42;100252.86;106453;1263;60272;-86
2023/01/31 05:33:30;;;;;;;21.90;13.00;;;;;;;-0.84;70.37;100250.77;108078;1261;73876;-88
2023/01/31 05:35:59;;;;;;;22.00;12.20;;;;;;;-0.81;70.13;100253.80;107042;1263;64118;-87
2023/01/31 05:38:27;;;;;;;20.20;13.40;;;;;;;-0.77;69.96;100256.81;106368;1259;73576;-87
2023/01/31 05:40:55;;;;;;;26.60;16.50;;;;;;;-0.74;69.98;100255.73;106301;1259;60211;-87
2023/01/31 05:43:22;;;;;;;22.20;14.40;;;;;;;-0.73;69.81;100256.23;107199;1261;60165;-86
2023/01/31 05:45:49;;;;;;;21.60;13.30;;;;;;;-0.73;69.52;100261.38;107058;1260;73942;-88
2023/01/31 05:48:31;;;;;;;19.00;13.10;;;;;;;-0.73;69.65;100256.92;106458;1263;64355;-88
2023/01/31 05:50:58;;;;;;;20.90;14.30;;;;;;;-0.76;69.66;100257.49;106658;1257;73306;-89
2023/01/31 05:53:25;;;;;;;22.30;13.00;;;;;;;-0.76;69.80;100261.09;106906;1256;60271;-88
2023/01/31 05:55:53;;;;;;;19.30;11.70;;;;;;;-0.78;70.20;100262.33;106966;1257;60824;-90
2023/01/31 05:58:23;;;;;;;22.20;12.80;;;;;;;-0.80;70.02;100263.40;106776;1256;74571;-89
2023/01/31 06:01:04;;;;;;;19.10;11.80;;;;;;;-0.82;70.40;100264.30;106855;1257;63932;-89
2023/01/31 06:03:33;;;;;;;19.20;13.10;;;;;;;-0.85;70.40;100259.71;108405;1256;73638;-89
2023/01/31 06:06:00;;;;;;;23.80;13.00;;;;;;;-0.87;70.62;100259.58;109084;1256;60864;-88
2023/01/31 06:08:35;;;;;;;23.60;12.70;;;;;;;-0.85;70.74;100258.35;109363;1257;61090;-89
2023/01/31 06:11:03;;;;;;;20.60;13.20;;;;;;;-0.79;70.92;100255.15;109222;1257;74122;-88
2023/01/31 06:13:31;;;;;;;21.70;14.50;;;;;;;-0.73;70.95;100251.60;106338;1257;63983;-87
2023/01/31 06:16:10;;;;;;;20.90;14.20;;;;;;;-0.67;70.85;100253.02;107752;1256;74159;-88
2023/01/31 06:18:42;;;;;;;24.50;15.10;;;;;;;-0.61;70.84;100251.88;107976;1256;59737;-88
2023/01/31 06:21:10;;;;;;;21.10;13.40;;;;;;;-0.57;70.87;100247.49;107170;1260;61737;-88
2023/01/31 06:23:40;;;;;;;21.10;12.20;;;;;;;-0.55;70.67;100245.39;106889;1260;74021;-88
2023/01/31 06:26:17;;;;;;;17.60;12.50;;;;;;;-0.53;70.69;100243.63;107086;1261;63877;-89
2023/01/31 06:29:09;;;;;;;21.30;12.30;;;;;;;-0.53;70.71;100248.95;107382;1256;73542;-89
2023/01/31 06:31:44;;;;;;;18.50;13.20;;;;;;;-0.52;70.83;100246.90;106791;1262;59702;-89
2023/01/31 06:34:12;;;;;;;23.30;12.40;;;;;;;-0.52;70.77;100243.95;106926;1256;60109;-88
2023/01/31 06:36:39;;;;;;;23.90;14.70;;;;;;;-0.51;70.83;100245.65;107157;1257;74625;-89
2023/01/31 06:39:10;;;;;;;20.70;12.60;;;;;;;-0.48;70.86;100245.25;106778;1256;64624;-90
2023/01/31 06:41:38;;;;;;;26.00;14.30;;;;;;;-0.44;70.93;100249.80;107170;1256;73477;-90
2023/01/31 06:44:16;;;;;;;23.00;13.10;;;;;;;-0.38;70.97;100247.45;106768;1260;62157;-91
2023/01/31 06:46:48;;;;;;;23.90;14.70;;;;;;;-0.30;70.94;100249.52;106969;1256;60289;-88
2023/01/31 06:49:18;;;;;;;24.50;15.40;;;;;;;-0.25;70.63;100244.77;107003;1256;72937;-86
2023/01/31 06:51:51;;;;;;;30.00;17.50;;;;;;;-0.19;70.85;100251.34;106911;1259;63555;-90
2023/01/31 06:54:19;;;;;;;31.80;16.40;;;;;;;-0.14;70.46;100252.96;106953;1257;72632;-89
2023/01/31 06:56:54;;;;;;;27.20;16.50;;;;;;;-0.11;70.22;100255.45;107307;1257;59771;-88
2023/01/31 06:59:30;;;;;;;22.70;14.30;;;;;;;-0.10;70.00;100256.11;108831;1263;60299;-88
2023/01/31 07:01:59;;;;;;;22.90;14.40;;;;;;;-0.12;69.85;100260.98;108320;1256;73025;-87
2023/01/31 07:04:26;;;;;;;18.40;12.70;;;;;;;-0.15;69.85;100261.03;107528;1260;63839;-90
2023/01/31 07:06:56;;;;;;;25.40;13.70;;;;;;;-0.16;69.97;100263.64;106750;1260;73423;-87
2023/01/31 07:09:23;;;;;;;19.50;12.50;;;;;;;-0.17;70.12;100274.84;106785;1262;59588;-90
2023/01/31 07:11:50;;;;;;;21.50;12.80;;;;;;;-0.21;70.09;100269.94;106760;1256;61999;-88
2023/01/31 07:14:19;;;;;;;18.40;11.40;;;;;;;-0.24;70.45;100263.61;106598;1263;74507;-88
2023/01/31 07:16:47;;;;;;;20.00;12.40;;;;;;;-0.25;70.60;100271.90;106549;1262;63909;-90
2023/01/31 07:19:14;;;;;;;26.80;14.00;;;;;;;-0.24;70.80;100274.09;106605;1258;73733;-90
2023/01/31 07:21:43;;;;;;;23.20;15.20;;;;;;;-0.20;70.79;100269.40;106824;1256;60677;-88
2023/01/31 07:24:11;;;;;;;23.10;13.60;;;;;;;-0.15;70.87;100271.02;107236;1257;61629;-88
2023/01/31 07:26:46;;;;;;;24.30;15.70;;;;;;;-0.10;70.98;100269.86;107196;1260;73802;-90
2023/01/31 07:29:17;;;;;;;23.50;14.60;;;;;;;-0.02;70.89;100267.63;106948;1257;65031;-90
2023/01/31 07:31:46;;;;;;;21.90;15.00;;;;;;;0.04;70.65;100266.64;106910;1263;73703;-89
2023/01/31 07:34:14;;;;;;;21.40;14.60;;;;;;;0.07;70.55;100266.90;107574;1256;59564;-90
2023/01/31 07:36:42;;;;;;;22.70;13.80;;;;;;;0.10;70.51;100263.91;107301;1257;60186;-88
2023/01/31 07:39:12;;;;;;;22.60;13.30;;;;;;;0.13;70.55;100264.71;107621;1259;74055;-90
2023/01/31 07:41:45;;;;;;;20.10;13.90;;;;;;;0.15;70.46;100270.86;108043;1256;65347;-89
2023/01/31 07:44:21;;;;;;;22.10;12.80;;;;;;;0.14;70.27;100270.02;108931;1258;72638;-87
2023/01/31 07:46:50;;;;;;;19.10;11.70;;;;;;;0.17;70.24;100270.13;108415;1256;61083;-90
2023/01/31 07:49:19;;;;;;;18.00;12.00;;;;;;;0.20;70.16;100270.23;108013;1256;59919;-90
2023/01/31 07:51:54;;;;;;;17.90;10.70;;;;;;;0.27;70.39;100267.66;107951;1260;71516;-89
2023/01/31 07:54:37;;;;;;;20.60;11.50;;;;;;;0.37;70.08;100262.77;107568;1262;65447;-88
2023/01/31 07:57:07;;;;;;;16.50;11.20;;;;;;;0.47;69.73;100260.48;107370;1257;72277;-89
2023/01/31 07:59:55;;;;;;;15.30;11.10;;;;;;;0.56;69.54;100262.84;107775;1260;59769;-88
2023/01/31 08:05:20;;;;;;;29.30;16.20;;;;;;;0.70;68.78;100267.81;107593;1261;73377;-89
2023/01/31 08:08:11;;;;;;;;;;;;;;;0.70;68.61;100272.81;107522;1258;62693;-89
2023/01/31 08:11:06;;;;;;;17.90;10.90;;;;;;;0.70;68.48;100275.58;107030;1267;72687;-89
2023/01/31 08:13:37;;;;;;;15.40;11.20;;;;;;;0.69;68.52;100274.91;107246;1262;59924;-88
2023/01/31 08:16:08;;;;;;;17.00;11.40;;;;;;;0.71;68.39;100279.66;106609;1269;60855;-86
2023/01/31 08:18:40;;;;;;;15.70;10.80;;;;;;;0.70;68.35;100281.23;107223;1262;73951;-88
2023/01/31 08:21:10;;;;;;;18.30;11.60;;;;;;;0.69;68.41;100286.44;108229;1264;63696;-90
2023/01/31 08:23:40;;;;;;;20.00;12.30;;;;;;;0.70;68.47;100283.84;108015;1264;72661;-90
2023/01/31 08:26:50;;;;;;;18.50;10.40;;;;;;;0.73;68.51;100284.10;108827;1263;59685;-90
2023/01/31 08:29:23;;;;;;;23.80;13.70;;;;;;;0.78;68.61;100281.04;107213;1264;61438;-90
2023/01/31 08:31:52;;;;;;;18.60;12.80;;;;;;;0.85;68.64;100288.45;107659;1269;72917;-90
2023/01/31 08:34:32;;;;;;;15.50;10.90;;;;;;;0.93;68.44;100288.23;108112;1263;64405;-88
2023/01/31 08:37:03;;;;;;;21.80;14.20;;;;;;;1.00;68.21;100279.11;107980;1262;72495;-88
2023/01/31 08:39:32;;;;;;;19.80;11.30;;;;;;;1.05;67.92;100279.34;108279;1263;59419;-92
2023/01/31 08:42:03;;;;;;;24.80;15.10;;;;;;;1.06;67.81;100277.05;107597;1260;60165;-88
2023/01/31 08:44:44;;;;;;;20.40;12.70;;;;;;;1.05;67.83;100276.40;107655;1260;72585;-88
2023/01/31 08:47:13;;;;;;;23.70;14.40;;;;;;;1.03;67.92;100276.80;107593;1260;62977;-86
2023/01/31 08:49:42;;;;;;;28.20;14.30;;;;;;;1.06;68.05;100277.39;108023;1260;73428;-86
2023/01/31 08:52:09;;;;;;;21.80;13.60;;;;;;;1.09;67.91;100274.91;107877;1266;60589;-88
2023/01/31 08:54:41;;;;;;;22.50;13.50;;;;;;;1.10;67.90;100273.67;107797;1260;60297;-90
2023/01/31 08:57:14;;;;;;;25.10;11.10;;;;;;;1.13;67.86;100273.58;107439;1260;72991;-89
2023/01/31 08:59:47;;;;;;;19.60;10.60;;;;;;;1.14;67.70;100282.70;106880;1262;63539;-92
2023/01/31 09:02:22;;;;;;;13.70;9.20;;;;;;;1.17;67.77;100279.36;106340;1260;72839;-88
2023/01/31 09:04:53;;;;;;;13.60;9.20;;;;;;;1.19;67.64;100277.05;107970;1261;60850;-90
2023/01/31 09:07:21;;;;;;;14.40;9.50;;;;;;;1.23;67.76;100281.77;107657;1257;60353;-92
2023/01/31 09:09:57;;;;;;;12.20;8.70;;;;;;;1.31;67.59;100283.95;109211;1256;72851;-92
2023/01/31 09:12:25;;;;;;;14.20;10.00;;;;;;;1.36;67.47;100281.95;108244;1256;63775;-89
2023/01/31 09:15:12;;;;;;;12.20;8.60;;;;;;;1.40;67.38;100280.94;109017;1256;73682;-91
2023/01/31 09:17:51;;;;;;;15.10;9.30;;;;;;;1.42;67.15;100279.85;109296;1257;61300;-89
2023/01/31 09:20:19;;;;;;;15.90;10.40;;;;;;;1.44;66.98;100283.08;109150;1258;60452;-88
2023/01/31 09:22:46;;;;;;;20.30;13.60;;;;;;;1.42;67.04;100285.71;107996;1257;73842;-88
2023/01/31 09:25:15;;;;;;;18.50;13.20;;;;;;;1.41;67.19;100285.73;107827;1256;63994;-89
2023/01/31 09:27:42;;;;;;;24.70;14.20;;;;;;;1.41;67.21;100283.88;108780;1257;72722;-90
2023/01/31 09:30:32;;;;;;;19.20;11.10;;;;;;;1.40;67.31;100279.41;107830;1260;61091;-90
2023/01/31 09:33:02;;;;;;;21.70;13.90;;;;;;;1.40;67.48;100280.10;107764;1257;60456;-90
2023/01/31 09:35:30;;;;;;;19.00;11.70;;;;;;;1.38;67.59;100284.80;107775;1257;72720;-91
2023/01/31 09:38:13;;;;;;;19.60;10.60;;;;;;;1.34;67.82;100279.23;107756;1257;65812;-91
2023/01/31 09:40:43;;;;;;;17.80;11.80;;;;;;;1.36;67.91;100275.36;107698;1263;73093;-91
2023/01/31 09:43:38;;;;;;;18.40;11.80;;;;;;;1.41;68.15;100273.00;108138;1257;60535;-91
2023/01/31 09:46:16;;;;;;;18.60;11.40;;;;;;;1.46;68.11;100271.13;107940;1257;60596;-91
2023/01/31 09:48:48;;;;;;;30.30;18.30;;;;;;;1.53;68.14;100270.94;107985;1256;72821;-91
2023/01/31 09:51:16;;;;;;;63.20;37.60;;;;;;;1.62;68.30;100268.97;107762;1257;64957;-89
2023/01/31 09:53:44;;;;;;;29.20;18.00;;;;;;;1.75;68.42;100266.18;108187;1257;72328;-90
2023/01/31 09:56:19;;;;;;;27.50;16.40;;;;;;;1.85;67.69;100268.30;106370;1258;60603;-90
2023/01/31 09:58:53;;;;;;;20.20;13.30;;;;;;;1.89;67.50;100260.09;108583;1257;61687;-89
2023/01/31 10:01:31;;;;;;;18.60;10.80;;;;;;;1.90;67.35;100259.04;109428;1258;74887;-89
2023/01/31 14:03:13;;;;;;;37.70;24.50;;;;;;;1.16;78.12;100237.54;106844;1282;611427;-93
2023/01/31 14:06:10;;;;;;;38.50;25.10;;;;;;;1.31;77.48;100237.13;108060;1255;167218;-94
2023/01/31 14:09:00;;;;;;;48.50;27.00;;;;;;;1.30;77.36;100238.20;108504;1255;60156;-96
2023/01/31 14:13:22;;;;;;;45.60;26.80;;;;;;;1.32;77.34;100234.17;108956;1251;71494;-96
2023/01/31 14:18:22;;;;;;;49.70;26.50;;;;;;;1.33;77.15;100241.38;109100;1262;62392;-93
2023/01/31 14:25:44;;;;;;;48.00;29.00;;;;;;;1.20;77.01;100237.06;108165;1270;59202;-93
2023/01/31 14:28:19;;;;;;;45.60;27.00;;;;;;;1.19;76.98;100234.35;106934;1279;61611;-95
2023/01/31 14:30:53;;;;;;;46.60;27.70;;;;;;;1.19;77.20;100240.20;105835;1280;72251;-94
2023/01/31 14:33:27;;;;;;;44.10;25.40;;;;;;;1.19;77.33;100241.23;105887;1280;64842;-94
2023/01/31 14:36:42;;;;;;;;;;;;;;;;;;;;;
2023/01/31 14:40:53;;;;;;;60.80;33.30;;;;;;;1.20;77.64;100249.30;105708;1283;59745;-96
2023/01/31 14:44:02;;;;;;;49.90;28.40;;;;;;;1.18;77.79;100242.48;105863;1285;61118;-94
2023/01/31 14:47:04;;;;;;;42.90;24.70;;;;;;;1.16;77.85;100248.04;105322;1286;72290;-94
2023/01/31 21:16:15;;;;;;;31.10;19.50;;;;;;;0.52;89.04;100285.12;107391;1279;613343;-95
2023/01/31 21:18:55;;;;;;;29.90;18.10;;;;;;;0.79;88.72;100285.66;108529;1263;122752;-95
2023/01/31 21:21:24;;;;;;;30.90;19.70;;;;;;;0.93;88.44;100284.96;108867;1259;60119;-96
2023/01/31 21:23:54;;;;;;;31.40;20.20;;;;;;;1.05;88.35;100289.46;108663;1261;71726;-94
2023/01/31 21:26:21;;;;;;;29.30;16.90;;;;;;;1.17;88.08;100288.81;107096;1254;63935;-94
2023/01/31 21:28:51;;;;;;;35.00;20.70;;;;;;;1.26;87.61;100288.74;108374;1254;73926;-93
2023/01/31 21:31:19;;;;;;;33.70;21.20;;;;;;;1.35;87.48;100288.49;109335;1254;59328;-94
2023/01/31 21:33:49;;;;;;;41.20;24.20;;;;;;;1.42;86.86;100292.60;107360;1255;60032;-94
2023/01/31 21:36:19;;;;;;;35.60;21.90;;;;;;;1.47;86.26;100288.70;106730;1254;73191;-95
2023/01/31 21:38:47;;;;;;;46.00;27.00;;;;;;;1.49;85.81;100286.76;107186;1256;65040;-95
2023/01/31 21:44:02;;;;;;;30.10;17.40;;;;;;;1.54;84.84;100287.65;106671;1255;61317;-93
2023/01/31 21:46:30;;;;;;;31.50;19.10;;;;;;;1.55;84.74;100290.00;106426;1261;60244;-95
2023/01/31 21:48:58;;;;;;;31.80;18.40;;;;;;;1.56;84.51;100288.95;106803;1259;74020;-95
2023/01/31 21:51:25;;;;;;;32.00;18.00;;;;;;;1.58;84.34;100288.90;106888;1259;64917;-96
2023/01/31 21:53:52;;;;;;;30.70;18.10;;;;;;;1.55;84.03;100281.08;106519;1254;74497;-92
2023/01/31 21:56:23;;;;;;;32.20;19.50;;;;;;;1.56;84.08;100281.19;107459;1256;60381;-94
2023/01/31 21:58:54;;;;;;;30.50;19.20;;;;;;;1.60;84.15;100279.86;106905;1256;59398;-93
2023/01/31 22:01:24;;;;;;;30.50;18.70;;;;;;;1.65;83.80;100282.48;106470;1260;73999;-95
2023/01/31 22:03:52;;;;;;;35.60;19.60;;;;;;;1.66;83.47;100281.25;107443;1254;64801;-94
2023/01/31 22:06:24;;;;;;;27.90;17.40;;;;;;;1.64;83.07;100283.21;108118;1258;72677;-91
2023/01/31 22:08:52;;;;;;;34.90;19.90;;;;;;;1.61;82.76;100281.73;106687;1256;62017;-95
2023/01/31 22:11:20;;;;;;;29.30;18.90;;;;;;;1.58;82.49;100276.13;106050;1256;61233;-95
2023/01/31 22:13:49;;;;;;;33.80;21.10;;;;;;;1.55;82.32;100276.22;106089;1256;74251;-91
2023/01/31 22:16:20;;;;;;;32.40;19.30;;;;;;;1.53;82.47;100276.62;106559;1257;63859;-93
2023/01/31 22:18:47;;;;;;;29.30;18.80;;;;;;;1.52;82.50;100277.52;106327;1254;73732;-96
2023/01/31 22:21:16;;;;;;;28.50;19.30;;;;;;;1.52;82.46;100279.07;105974;1253;60870;-95
2023/01/31 22:23:46;;;;;;;32.10;20.10;;;;;;;1.52;82.75;100279.74;106272;1257;61369;-95
2023/01/31 22:26:15;;;;;;;31.50;20.30;;;;;;;1.53;82.60;100283.01;106430;1257;74117;-94
2023/01/31 22:28:44;;;;;;;28.30;19.10;;;;;;;1.53;82.51;100282.84;106902;1254;64304;-96
2023/01/31 22:31:11;;;;;;;34.60;21.60;;;;;;;1.51;82.36;100279.63;106842;1252;72410;-94
2023/01/31 22:33:39;;;;;;;32.30;18.60;;;;;;;1.47;82.14;100280.41;106746;1255;59641;-94
2023/01/31 22:36:08;;;;;;;34.10;19.80;;;;;;;1.44;81.95;100278.59;106596;1255;61384;-94
2023/01/31 22:38:36;;;;;;;33.70;18.30;;;;;;;1.40;82.22;100281.29;106493;1251;74016;-93
2023/01/31 22:41:08;;;;;;;36.70;22.40;;;;;;;1.38;82.26;100286.34;106681;1252;64105;-94
2023/01/31 22:43:55;;;;;;;36.80;22.50;;;;;;;1.39;82.55;100286.33;109105;1251;74228;-95
2023/01/31 22:46:31;;;;;;;34.90;21.00;;;;;;;1.42;82.70;100282.28;109457;1252;60093;-95
2023/01/31 22:48:58;;;;;;;30.70;19.40;;;;;;;1.47;82.58;100284.04;109587;1252;60213;-94
2023/01/31 22:51:27;;;;;;;35.00;20.30;;;;;;;1.52;82.65;100284.60;109695;1252;73036;-93
2023/01/31 22:53:55;;;;;;;30.90;20.30;;;;;;;1.54;82.59;100280.90;109886;1251;63846;-94
2023/01/31 22:56:31;;;;;;;33.60;19.10;;;;;;;1.60;82.48;100281.77;109622;1253;72589;-94
2023/01/31 22:59:10;;;;;;;26.90;17.50;;;;;;;1.63;82.16;100284.25;109800;1252;59294;-93
2023/01/31 23:01:38;;;;;;;27.10;17.60;;;;;;;1.63;81.73;100284.64;109601;1252;60107;-94
2023/01/31 23:04:18;;;;;;;34.10;20.20;;;;;;;1.61;81.53;100285.86;109655;1252;72952;-93
2023/01/31 23:06:45;;;;;;;32.90;19.60;;;;;;;1.61;81.36;100290.72;109605;1253;63666;-94
2023/01/31 23:09:12;;;;;;;28.10;19.10;;;;;;;1.60;81.35;100289.02;108808;1252;72439;-94
2023/01/31 23:11:39;;;;;;;32.90;18.80;;;;;;;1.56;81.31;100287.92;106861;1253;61143;-92
2023/01/31 23:14:07;;;;;;;27.70;17.60;;;;;;;1.55;81.36;100284.50;106641;1253;60196;-92
2023/01/31 23:19:20;;;;;;;28.90;17.60;;;;;;;1.51;82.09;100284.96;108841;1253;63940;-94
2023/01/31 23:21:48;;;;;;;26.80;17.20;;;;;;;1.53;82.29;100287.15;109157;1252;73441;-93
2023/01/31 23:24:15;;;;;;;31.60;18.70;;;;;;;1.56;82.05;100290.49;106669;1253;59640;-94
2023/01/31 23:26:42;;;;;;;30.30;18.10;;;;;;;1.57;82.00;100288.23;106148;1253;60121;-95
2023/01/31 23:29:09;;;;;;;31.20;19.30;;;;;;;1.56;81.82;100290.35;106002;1254;73947;-96
2023/01/31 23:31:37;;;;;;;36.90;21.30;;;;;;;1.50;81.80;100283.42;106206;1257;64213;-94
2023/01/31 23:34:06;;;;;;;37.10;22.20;;;;;;;1.49;82.00;100286.23;106766;1254;73009;-91
2023/01/31 23:36:33;;;;;;;33.80;20.10;;;;;;;1.47;82.16;100280.59;109590;1252;60467;-94
2023/01/31 23:39:01;;;;;;;33.90;20.30;;;;;;;1.43;81.94;100277.94;109127;1253;60259;-96
2023/01/31 23:41:28;;;;;;;32.20;20.30;;;;;;;1.41;82.23;100277.84;106395;1253;72938;-95
2023/01/31 23:43:55;;;;;;;32.50;21.00;;;;;;;1.43;82.74;100269.34;106403;1253;63891;-95
2023/01/31 23:46:22;;;;;;;34.80;20.40;;;;;;;1.49;82.85;100270.38;106425;1256;74123;-94
2023/01/31 23:48:49;;;;;;;39.10;21.30;;;;;;;1.50;82.63;100268.79;106450;1256;60918;-94
2023/01/31 23:51:17;;;;;;;39.60;22.00;;;;;;;1.51;82.72;100268.42;106227;1259;60385;-95
2023/01/31 23:53:48;;;;;;;37.20;22.50;;;;;;;1.52;82.78;100270.46;106226;1259;72966;-93
2023/01/31 23:56:15;;;;;;;40.90;22.00;;;;;;;1.53;82.94;100269.75;106857;1257;63857;-95
2023/01/31 23:58:42;;;;;;;41.20;22.70;;;;;;;1.56;82.61;100265.88;106610;1255;72675;-92
